sensor_id;sensor_type;location;lat;lon;timestamp;temperature;humidity
1329;DHT22;658;48.820;9.354;2023-04-30T00:03:03;23.40;48.10
1329;DHT22;658;48.820;9.354;2023-04-30T00:07:05;23.30;48.00
1329;DHT22;658;48.820;9.354;2023-04-30T00:11:05;23.30;48.00
1329;DHT22;658;48.820;9.354;2023-04-30T00:15:08;23.30;47.90
1329;DHT22;658;48.820;9.354;2023-04-30T00:19:09;23.30;48.00
1329;DHT22;658;48.820;9.354;2023-04-30T00:23:10;23.30;47.90
1329;DHT22;658;48.820;9.354;2023-04-30T00:27:11;23.30;47.90
1329;DHT22;658;48.820;9.354;2023-04-30T00:31:16;23.30;47.90
1329;DHT22;658;48.820;9.354;2023-04-30T00:35:17;23.20;47.70
1329;DHT22;658;48.820;9.354;2023-04-30T00:39:17;23.20;47.80
1329;DHT22;658;48.820;9.354;2023-04-30T00:43:20;23.20;47.70
1329;DHT22;658;48.820;9.354;2023-04-30T00:47:21;23.20;47.70
1329;DHT22;658;48.820;9.354;2023-04-30T00:51:25;23.20;47.80
1329;DHT22;658;48.820;9.354;2023-04-30T00:55:25;23.20;47.80
1329;DHT22;658;48.820;9.354;2023-04-30T00:59:26;23.20;47.80
1329;DHT22;658;48.820;9.354;2023-04-30T01:03:29;23.10;47.70
1329;DHT22;658;48.820;9.354;2023-04-30T01:07:35;23.20;47.80
1329;DHT22;658;48.820;9.354;2023-04-30T01:11:55;23.20;47.80
1329;DHT22;658;48.820;9.354;2023-04-30T01:16:14;23.10;48.30
1329;DHT22;658;48.820;9.354;2023-04-30T01:20:18;23.10;47.70
1329;DHT22;658;48.820;9.354;2023-04-30T01:24:48;23.10;47.70
1329;DHT22;658;48.820;9.354;2023-04-30T01:28:53;23.10;47.80
1329;DHT22;658;48.820;9.354;2023-04-30T01:32:56;23.10;47.70
1329;DHT22;658;48.820;9.354;2023-04-30T01:46:10;23.00;47.70
1329;DHT22;658;48.820;9.354;2023-04-30T01:51:06;23.00;47.70
1329;DHT22;658;48.820;9.354;2023-04-30T01:55:08;23.00;47.70
1329;DHT22;658;48.820;9.354;2023-04-30T01:59:11;22.90;47.70
1329;DHT22;658;48.820;9.354;2023-04-30T02:03:16;23.00;47.80
1329;DHT22;658;48.820;9.354;2023-04-30T02:07:42;22.90;47.60
1329;DHT22;658;48.820;9.354;2023-04-30T02:11:43;22.90;47.70
1329;DHT22;658;48.820;9.354;2023-04-30T02:15:46;22.90;47.60
1329;DHT22;658;48.820;9.354;2023-04-30T02:19:46;22.90;47.70
1329;DHT22;658;48.820;9.354;2023-04-30T02:23:47;22.90;47.70
1329;DHT22;658;48.820;9.354;2023-04-30T02:27:47;22.90;47.80
1329;DHT22;658;48.820;9.354;2023-04-30T02:31:49;22.90;47.70
1329;DHT22;658;48.820;9.354;2023-04-30T02:35:52;22.80;47.60
1329;DHT22;658;48.820;9.354;2023-04-30T02:39:57;22.80;47.70
1329;DHT22;658;48.820;9.354;2023-04-30T02:44:00;22.80;47.70
1329;DHT22;658;48.820;9.354;2023-04-30T02:48:00;22.80;47.70
1329;DHT22;658;48.820;9.354;2023-04-30T02:52:03;22.80;47.70
1329;DHT22;658;48.820;9.354;2023-04-30T02:56:04;22.80;47.60
1329;DHT22;658;48.820;9.354;2023-04-30T03:00:05;22.80;47.70
1329;DHT22;658;48.820;9.354;2023-04-30T03:04:09;22.80;47.70
1329;DHT22;658;48.820;9.354;2023-04-30T03:08:11;22.80;47.70
1329;DHT22;658;48.820;9.354;2023-04-30T03:12:12;22.80;47.70
1329;DHT22;658;48.820;9.354;2023-04-30T03:16:14;22.80;47.70
1329;DHT22;658;48.820;9.354;2023-04-30T03:20:14;22.70;47.60
1329;DHT22;658;48.820;9.354;2023-04-30T03:24:17;22.70;47.60
1329;DHT22;658;48.820;9.354;2023-04-30T03:28:18;22.70;47.70
1329;DHT22;658;48.820;9.354;2023-04-30T03:32:19;22.70;47.60
1329;DHT22;658;48.820;9.354;2023-04-30T03:36:20;22.70;47.60
1329;DHT22;658;48.820;9.354;2023-04-30T03:40:20;22.70;47.60
1329;DHT22;658;48.820;9.354;2023-04-30T03:44:23;22.70;47.60
1329;DHT22;658;48.820;9.354;2023-04-30T03:48:24;22.70;47.60
1329;DHT22;658;48.820;9.354;2023-04-30T03:52:24;22.60;47.50
1329;DHT22;658;48.820;9.354;2023-04-30T03:56:25;22.60;47.50
1329;DHT22;658;48.820;9.354;2023-04-30T04:00:26;22.70;47.60
1329;DHT22;658;48.820;9.354;2023-04-30T04:04:28;22.60;47.40
1329;DHT22;658;48.820;9.354;2023-04-30T04:08:29;22.60;47.50
1329;DHT22;658;48.820;9.354;2023-04-30T04:12:29;22.60;47.50
1329;DHT22;658;48.820;9.354;2023-04-30T04:16:32;22.60;47.50
1329;DHT22;658;48.820;9.354;2023-04-30T04:20:33;22.60;47.50
1329;DHT22;658;48.820;9.354;2023-04-30T04:24:36;22.60;47.50
1329;DHT22;658;48.820;9.354;2023-04-30T04:28:37;22.60;47.50
1329;DHT22;658;48.820;9.354;2023-04-30T04:32:38;22.50;47.40
1329;DHT22;658;48.820;9.354;2023-04-30T04:36:50;22.60;47.50
1329;DHT22;658;48.820;9.354;2023-04-30T04:40:54;22.60;47.40
1329;DHT22;658;48.820;9.354;2023-04-30T04:44:55;22.60;47.50
1329;DHT22;658;48.820;9.354;2023-04-30T04:48:55;22.60;47.50
1329;DHT22;658;48.820;9.354;2023-04-30T04:52:58;22.60;47.50
1329;DHT22;658;48.820;9.354;2023-04-30T04:56:59;22.50;47.40
1329;DHT22;658;48.820;9.354;2023-04-30T05:01:00;22.50;47.40
1329;DHT22;658;48.820;9.354;2023-04-30T05:05:02;22.50;47.40
1329;DHT22;658;48.820;9.354;2023-04-30T05:09:02;22.50;47.40
1329;DHT22;658;48.820;9.354;2023-04-30T05:13:06;22.50;47.30
1329;DHT22;658;48.820;9.354;2023-04-30T05:17:08;22.50;47.30
1329;DHT22;658;48.820;9.354;2023-04-30T05:21:09;22.50;47.30
1329;DHT22;658;48.820;9.354;2023-04-30T05:25:12;22.50;47.40
1329;DHT22;658;48.820;9.354;2023-04-30T05:29:12;22.50;47.40
1329;DHT22;658;48.820;9.354;2023-04-30T05:33:13;22.50;47.40
1329;DHT22;658;48.820;9.354;2023-04-30T05:37:16;22.40;47.20
1329;DHT22;658;48.820;9.354;2023-04-30T05:41:19;22.40;47.30
1329;DHT22;658;48.820;9.354;2023-04-30T05:45:20;22.40;47.30
1329;DHT22;658;48.820;9.354;2023-04-30T05:49:21;22.40;47.30
1329;DHT22;658;48.820;9.354;2023-04-30T05:53:21;22.40;47.20
1329;DHT22;658;48.820;9.354;2023-04-30T05:57:22;22.40;47.20
1329;DHT22;658;48.820;9.354;2023-04-30T06:01:23;22.40;47.30
1329;DHT22;658;48.820;9.354;2023-04-30T06:05:24;22.40;47.30
1329;DHT22;658;48.820;9.354;2023-04-30T06:09:25;22.40;47.30
1329;DHT22;658;48.820;9.354;2023-04-30T06:13:25;22.40;47.30
1329;DHT22;658;48.820;9.354;2023-04-30T06:17:26;22.40;47.30
1329;DHT22;658;48.820;9.354;2023-04-30T06:21:29;22.40;47.20
1329;DHT22;658;48.820;9.354;2023-04-30T06:25:30;22.40;47.20
1329;DHT22;658;48.820;9.354;2023-04-30T06:29:32;22.40;47.30
1329;DHT22;658;48.820;9.354;2023-04-30T06:33:33;22.40;47.30
1329;DHT22;658;48.820;9.354;2023-04-30T06:37:38;22.40;47.30
1329;DHT22;658;48.820;9.354;2023-04-30T06:41:41;22.40;47.20
1329;DHT22;658;48.820;9.354;2023-04-30T06:45:42;22.40;47.30
1329;DHT22;658;48.820;9.354;2023-04-30T06:49:44;22.40;47.20
1329;DHT22;658;48.820;9.354;2023-04-30T06:53:49;22.40;47.20
1329;DHT22;658;48.820;9.354;2023-04-30T06:57:50;22.30;47.10
1329;DHT22;658;48.820;9.354;2023-04-30T07:01:53;22.30;47.10
1329;DHT22;658;48.820;9.354;2023-04-30T07:05:54;22.30;47.10
1329;DHT22;658;48.820;9.354;2023-04-30T07:09:55;22.30;47.10
1329;DHT22;658;48.820;9.354;2023-04-30T07:13:56;22.30;47.10
1329;DHT22;658;48.820;9.354;2023-04-30T07:17:56;22.30;47.10
1329;DHT22;658;48.820;9.354;2023-04-30T07:21:57;22.30;47.10
1329;DHT22;658;48.820;9.354;2023-04-30T07:26:00;22.30;47.10
1329;DHT22;658;48.820;9.354;2023-04-30T07:30:03;22.30;47.10
1329;DHT22;658;48.820;9.354;2023-04-30T07:34:03;22.30;47.10
1329;DHT22;658;48.820;9.354;2023-04-30T07:38:06;22.30;47.70
1329;DHT22;658;48.820;9.354;2023-04-30T07:42:10;22.30;47.20
1329;DHT22;658;48.820;9.354;2023-04-30T07:46:10;22.30;47.10
1329;DHT22;658;48.820;9.354;2023-04-30T07:50:11;22.30;47.10
1329;DHT22;658;48.820;9.354;2023-04-30T07:54:12;22.30;47.00
1329;DHT22;658;48.820;9.354;2023-04-30T07:58:12;22.30;47.10
1329;DHT22;658;48.820;9.354;2023-04-30T08:02:15;22.30;47.10
1329;DHT22;658;48.820;9.354;2023-04-30T08:06:19;22.30;47.00
1329;DHT22;658;48.820;9.354;2023-04-30T08:10:22;22.30;47.00
1329;DHT22;658;48.820;9.354;2023-04-30T08:14:25;22.30;47.10
1329;DHT22;658;48.820;9.354;2023-04-30T08:18:28;22.30;47.20
1329;DHT22;658;48.820;9.354;2023-04-30T08:22:29;22.30;47.30
1329;DHT22;658;48.820;9.354;2023-04-30T08:26:30;22.40;47.30
1329;DHT22;658;48.820;9.354;2023-04-30T08:30:35;22.40;47.10
1329;DHT22;658;48.820;9.354;2023-04-30T08:34:36;22.50;47.10
1329;DHT22;658;48.820;9.354;2023-04-30T08:38:37;22.60;47.00
1329;DHT22;658;48.820;9.354;2023-04-30T08:42:43;22.60;46.80
1329;DHT22;658;48.820;9.354;2023-04-30T08:46:44;22.70;46.80
1329;DHT22;658;48.820;9.354;2023-04-30T08:50:45;22.70;46.70
1329;DHT22;658;48.820;9.354;2023-04-30T08:54:46;22.80;46.60
1329;DHT22;658;48.820;9.354;2023-04-30T08:58:50;22.80;46.50
1329;DHT22;658;48.820;9.354;2023-04-30T09:02:53;22.90;46.50
1329;DHT22;658;48.820;9.354;2023-04-30T09:06:54;22.90;46.40
1329;DHT22;658;48.820;9.354;2023-04-30T09:11:00;22.90;46.20
1329;DHT22;658;48.820;9.354;2023-04-30T09:15:07;23.00;46.20
1329;DHT22;658;48.820;9.354;2023-04-30T09:19:19;23.00;46.20
1329;DHT22;658;48.820;9.354;2023-04-30T09:23:22;23.10;46.10
1329;DHT22;658;48.820;9.354;2023-04-30T09:27:25;23.10;45.90
1329;DHT22;658;48.820;9.354;2023-04-30T09:31:27;23.20;45.90
1329;DHT22;658;48.820;9.354;2023-04-30T09:35:39;23.20;45.80
1329;DHT22;658;48.820;9.354;2023-04-30T09:39:52;23.30;45.70
1329;DHT22;658;48.820;9.354;2023-04-30T09:43:54;23.30;45.80
1329;DHT22;658;48.820;9.354;2023-04-30T09:47:59;23.30;45.80
1329;DHT22;658;48.820;9.354;2023-04-30T09:52:00;23.40;45.80
1329;DHT22;658;48.820;9.354;2023-04-30T09:56:02;23.50;45.80
1329;DHT22;658;48.820;9.354;2023-04-30T10:00:05;23.50;45.60
1329;DHT22;658;48.820;9.354;2023-04-30T10:04:08;23.60;45.50
1329;DHT22;658;48.820;9.354;2023-04-30T10:08:16;23.60;45.30
1329;DHT22;658;48.820;9.354;2023-04-30T10:12:24;23.60;45.10
1329;DHT22;658;48.820;9.354;2023-04-30T10:16:44;23.60;44.90
1329;DHT22;658;48.820;9.354;2023-04-30T10:20:49;23.60;44.80
1329;DHT22;658;48.820;9.354;2023-04-30T10:24:51;23.60;44.70
1329;DHT22;658;48.820;9.354;2023-04-30T10:28:52;23.60;44.70
1329;DHT22;658;48.820;9.354;2023-04-30T10:41:19;23.70;44.70
1329;DHT22;658;48.820;9.354;2023-04-30T10:45:37;23.70;44.50
1329;DHT22;658;48.820;9.354;2023-04-30T10:49:38;23.70;44.50
1329;DHT22;658;48.820;9.354;2023-04-30T10:53:43;23.70;44.40
1329;DHT22;658;48.820;9.354;2023-04-30T10:57:46;23.70;44.50
1329;DHT22;658;48.820;9.354;2023-04-30T11:02:00;23.80;44.40
1329;DHT22;658;48.820;9.354;2023-04-30T11:10:08;23.80;44.30
1329;DHT22;658;48.820;9.354;2023-04-30T11:14:10;23.80;44.30
1329;DHT22;658;48.820;9.354;2023-04-30T11:18:13;23.80;44.30
1329;DHT22;658;48.820;9.354;2023-04-30T11:22:18;23.80;44.20
1329;DHT22;658;48.820;9.354;2023-04-30T11:26:21;23.80;44.20
1329;DHT22;658;48.820;9.354;2023-04-30T11:30:23;23.80;44.20
1329;DHT22;658;48.820;9.354;2023-04-30T11:34:26;23.80;44.20
1329;DHT22;658;48.820;9.354;2023-04-30T11:38:33;23.80;44.10
1329;DHT22;658;48.820;9.354;2023-04-30T11:42:35;23.80;44.00
1329;DHT22;658;48.820;9.354;2023-04-30T11:46:41;23.90;44.00
1329;DHT22;658;48.820;9.354;2023-04-30T11:50:43;23.90;43.90
1329;DHT22;658;48.820;9.354;2023-04-30T11:54:43;23.90;43.80
1329;DHT22;658;48.820;9.354;2023-04-30T11:58:45;23.90;43.70
1329;DHT22;658;48.820;9.354;2023-04-30T12:02:48;24.00;43.80
1329;DHT22;658;48.820;9.354;2023-04-30T12:06:48;24.00;43.70
1329;DHT22;658;48.820;9.354;2023-04-30T12:10:49;24.10;43.70
1329;DHT22;658;48.820;9.354;2023-04-30T12:14:50;24.10;43.60
1329;DHT22;658;48.820;9.354;2023-04-30T12:18:50;24.10;43.50
1329;DHT22;658;48.820;9.354;2023-04-30T12:22:57;24.10;44.00
1329;DHT22;658;48.820;9.354;2023-04-30T12:26:58;24.10;43.40
1329;DHT22;658;48.820;9.354;2023-04-30T12:31:01;24.20;43.50
1329;DHT22;658;48.820;9.354;2023-04-30T12:35:07;24.20;44.00
1329;DHT22;658;48.820;9.354;2023-04-30T12:39:15;24.20;43.60
1329;DHT22;658;48.820;9.354;2023-04-30T12:43:17;24.20;43.90
1329;DHT22;658;48.820;9.354;2023-04-30T12:47:18;24.20;43.80
1329;DHT22;658;48.820;9.354;2023-04-30T12:51:19;24.20;43.70
1329;DHT22;658;48.820;9.354;2023-04-30T12:55:20;24.30;43.80
1329;DHT22;658;48.820;9.354;2023-04-30T12:59:23;24.30;43.80
1329;DHT22;658;48.820;9.354;2023-04-30T13:03:26;24.30;43.70
1329;DHT22;658;48.820;9.354;2023-04-30T13:07:38;24.20;43.70
1329;DHT22;658;48.820;9.354;2023-04-30T13:11:43;24.20;43.70
1329;DHT22;658;48.820;9.354;2023-04-30T13:15:47;24.20;43.60
1329;DHT22;658;48.820;9.354;2023-04-30T13:19:49;24.30;43.60
1329;DHT22;658;48.820;9.354;2023-04-30T13:23:50;24.30;43.50
1329;DHT22;658;48.820;9.354;2023-04-30T13:27:50;24.30;43.70
1329;DHT22;658;48.820;9.354;2023-04-30T13:31:51;24.30;43.50
1329;DHT22;658;48.820;9.354;2023-04-30T13:35:52;24.30;43.50
1329;DHT22;658;48.820;9.354;2023-04-30T13:39:52;24.40;43.40
1329;DHT22;658;48.820;9.354;2023-04-30T13:43:55;24.50;43.60
1329;DHT22;658;48.820;9.354;2023-04-30T13:47:59;24.60;43.60
1329;DHT22;658;48.820;9.354;2023-04-30T13:52:02;24.60;43.50
1329;DHT22;658;48.820;9.354;2023-04-30T13:56:05;24.60;43.40
1329;DHT22;658;48.820;9.354;2023-04-30T14:00:08;24.70;43.30
1329;DHT22;658;48.820;9.354;2023-04-30T14:04:09;24.70;43.50
1329;DHT22;658;48.820;9.354;2023-04-30T14:08:09;24.70;43.50
1329;DHT22;658;48.820;9.354;2023-04-30T14:12:13;24.70;44.00
1329;DHT22;658;48.820;9.354;2023-04-30T14:16:13;24.80;43.50
1329;DHT22;658;48.820;9.354;2023-04-30T14:20:14;24.80;43.50
1329;DHT22;658;48.820;9.354;2023-04-30T14:24:15;24.80;43.70
1329;DHT22;658;48.820;9.354;2023-04-30T14:28:16;24.70;43.50
1329;DHT22;658;48.820;9.354;2023-04-30T14:32:18;24.80;43.60
1329;DHT22;658;48.820;9.354;2023-04-30T14:36:19;24.80;43.50
1329;DHT22;658;48.820;9.354;2023-04-30T14:40:20;24.80;43.50
1329;DHT22;658;48.820;9.354;2023-04-30T14:44:21;24.70;43.40
1329;DHT22;658;48.820;9.354;2023-04-30T14:48:24;24.70;43.50
1329;DHT22;658;48.820;9.354;2023-04-30T14:52:25;24.70;43.40
1329;DHT22;658;48.820;9.354;2023-04-30T14:56:28;24.70;43.40
1329;DHT22;658;48.820;9.354;2023-04-30T15:00:29;24.70;43.40
1329;DHT22;658;48.820;9.354;2023-04-30T15:04:32;24.70;43.40
1329;DHT22;658;48.820;9.354;2023-04-30T15:08:35;24.70;43.40
1329;DHT22;658;48.820;9.354;2023-04-30T15:12:41;24.70;43.40
1329;DHT22;658;48.820;9.354;2023-04-30T15:16:45;24.70;44.20
1329;DHT22;658;48.820;9.354;2023-04-30T15:20:45;24.70;43.60
1329;DHT22;658;48.820;9.354;2023-04-30T15:24:46;24.80;44.00
1329;DHT22;658;48.820;9.354;2023-04-30T15:28:49;24.80;44.50
1329;DHT22;658;48.820;9.354;2023-04-30T15:32:52;24.80;43.80
1329;DHT22;658;48.820;9.354;2023-04-30T15:36:52;24.90;43.60
1329;DHT22;658;48.820;9.354;2023-04-30T15:40:53;24.90;43.60
1329;DHT22;658;48.820;9.354;2023-04-30T15:44:54;24.90;43.60
1329;DHT22;658;48.820;9.354;2023-04-30T15:48:57;25.00;43.60
1329;DHT22;658;48.820;9.354;2023-04-30T15:52:58;25.00;43.80
1329;DHT22;658;48.820;9.354;2023-04-30T15:56:58;25.00;43.60
1329;DHT22;658;48.820;9.354;2023-04-30T16:01:00;25.00;43.70
1329;DHT22;658;48.820;9.354;2023-04-30T16:05:04;25.00;43.70
1329;DHT22;658;48.820;9.354;2023-04-30T16:09:06;25.00;43.70
1329;DHT22;658;48.820;9.354;2023-04-30T16:13:09;25.00;44.00
1329;DHT22;658;48.820;9.354;2023-04-30T16:17:11;25.00;44.00
1329;DHT22;658;48.820;9.354;2023-04-30T16:21:12;25.00;44.10
1329;DHT22;658;48.820;9.354;2023-04-30T16:25:13;25.00;43.70
1329;DHT22;658;48.820;9.354;2023-04-30T16:29:13;25.00;43.60
1329;DHT22;658;48.820;9.354;2023-04-30T16:33:16;25.00;43.50
1329;DHT22;658;48.820;9.354;2023-04-30T16:37:21;24.90;43.40
1329;DHT22;658;48.820;9.354;2023-04-30T16:41:21;24.90;43.10
1329;DHT22;658;48.820;9.354;2023-04-30T16:45:22;24.80;42.30
1329;DHT22;658;48.820;9.354;2023-04-30T16:49:27;24.80;42.60
1329;DHT22;658;48.820;9.354;2023-04-30T16:53:33;24.80;42.40
1329;DHT22;658;48.820;9.354;2023-04-30T16:57:34;24.80;42.40
1329;DHT22;658;48.820;9.354;2023-04-30T17:01:35;24.80;42.00
1329;DHT22;658;48.820;9.354;2023-04-30T17:05:36;24.70;41.70
1329;DHT22;658;48.820;9.354;2023-04-30T17:09:36;24.70;41.60
1329;DHT22;658;48.820;9.354;2023-04-30T17:13:39;24.60;41.60
1329;DHT22;658;48.820;9.354;2023-04-30T17:17:40;24.60;41.60
1329;DHT22;658;48.820;9.354;2023-04-30T17:21:43;24.50;41.60
1329;DHT22;658;48.820;9.354;2023-04-30T17:25:43;24.50;41.60
1329;DHT22;658;48.820;9.354;2023-04-30T17:29:45;24.40;41.60
1329;DHT22;658;48.820;9.354;2023-04-30T17:33:46;24.30;41.70
1329;DHT22;658;48.820;9.354;2023-04-30T17:37:46;24.30;41.90
1329;DHT22;658;48.820;9.354;2023-04-30T17:41:47;24.30;42.10
1329;DHT22;658;48.820;9.354;2023-04-30T17:45:48;24.30;42.20
1329;DHT22;658;48.820;9.354;2023-04-30T17:49:51;24.30;42.20
1329;DHT22;658;48.820;9.354;2023-04-30T17:53:54;24.30;42.30
1329;DHT22;658;48.820;9.354;2023-04-30T17:57:55;24.30;42.40
1329;DHT22;658;48.820;9.354;2023-04-30T18:01:56;24.30;42.40
1329;DHT22;658;48.820;9.354;2023-04-30T18:05:57;24.20;42.40
1329;DHT22;658;48.820;9.354;2023-04-30T18:09:57;24.20;42.50
1329;DHT22;658;48.820;9.354;2023-04-30T18:14:00;24.20;42.60
1329;DHT22;658;48.820;9.354;2023-04-30T18:18:01;24.20;42.60
1329;DHT22;658;48.820;9.354;2023-04-30T18:22:04;24.20;42.70
1329;DHT22;658;48.820;9.354;2023-04-30T18:26:04;24.20;42.70
1329;DHT22;658;48.820;9.354;2023-04-30T18:30:06;24.10;42.70
1329;DHT22;658;48.820;9.354;2023-04-30T18:34:07;24.10;42.80
1329;DHT22;658;48.820;9.354;2023-04-30T18:38:07;24.10;42.80
1329;DHT22;658;48.820;9.354;2023-04-30T18:42:10;24.10;42.90
1329;DHT22;658;48.820;9.354;2023-04-30T18:46:11;24.10;43.10
1329;DHT22;658;48.820;9.354;2023-04-30T18:50:14;24.00;43.00
1329;DHT22;658;48.820;9.354;2023-04-30T18:54:17;24.00;43.10
1329;DHT22;658;48.820;9.354;2023-04-30T18:58:17;24.00;43.70
1329;DHT22;658;48.820;9.354;2023-04-30T19:02:18;24.00;43.30
1329;DHT22;658;48.820;9.354;2023-04-30T19:06:23;24.00;43.40
1329;DHT22;658;48.820;9.354;2023-04-30T19:10:24;23.90;43.30
1329;DHT22;658;48.820;9.354;2023-04-30T19:14:24;24.00;43.40
1329;DHT22;658;48.820;9.354;2023-04-30T19:18:25;23.90;43.40
1329;DHT22;658;48.820;9.354;2023-04-30T19:22:25;23.90;43.50
1329;DHT22;658;48.820;9.354;2023-04-30T19:26:26;23.90;43.50
1329;DHT22;658;48.820;9.354;2023-04-30T19:30:29;23.90;44.20
1329;DHT22;658;48.820;9.354;2023-04-30T19:34:29;23.90;43.90
1329;DHT22;658;48.820;9.354;2023-04-30T19:38:30;24.00;44.10
1329;DHT22;658;48.820;9.354;2023-04-30T19:42:33;24.00;44.10
1329;DHT22;658;48.820;9.354;2023-04-30T19:46:34;24.00;44.20
1329;DHT22;658;48.820;9.354;2023-04-30T19:50:39;24.00;44.20
1329;DHT22;658;48.820;9.354;2023-04-30T19:54:43;24.00;44.20
1329;DHT22;658;48.820;9.354;2023-04-30T19:58:50;24.00;44.20
1329;DHT22;658;48.820;9.354;2023-04-30T20:02:53;24.00;44.40
1329;DHT22;658;48.820;9.354;2023-04-30T20:06:53;24.00;44.30
1329;DHT22;658;48.820;9.354;2023-04-30T20:10:56;24.00;44.40
1329;DHT22;658;48.820;9.354;2023-04-30T20:14:57;24.00;44.40
1329;DHT22;658;48.820;9.354;2023-04-30T20:18:57;24.00;44.50
1329;DHT22;658;48.820;9.354;2023-04-30T20:23:12;24.00;44.50
1329;DHT22;658;48.820;9.354;2023-04-30T20:27:13;24.00;44.50
1329;DHT22;658;48.820;9.354;2023-04-30T20:31:17;24.00;44.50
1329;DHT22;658;48.820;9.354;2023-04-30T20:35:18;24.00;44.50
1329;DHT22;658;48.820;9.354;2023-04-30T20:39:18;24.10;44.60
1329;DHT22;658;48.820;9.354;2023-04-30T20:43:20;24.00;45.20
1329;DHT22;658;48.820;9.354;2023-04-30T20:47:21;24.00;44.60
1329;DHT22;658;48.820;9.354;2023-04-30T20:51:24;24.10;44.90
1329;DHT22;658;48.820;9.354;2023-04-30T20:55:24;24.10;44.70
1329;DHT22;658;48.820;9.354;2023-04-30T20:59:26;24.00;44.60
1329;DHT22;658;48.820;9.354;2023-04-30T21:03:26;23.90;44.40
1329;DHT22;658;48.820;9.354;2023-04-30T21:07:27;23.90;44.60
1329;DHT22;658;48.820;9.354;2023-04-30T21:11:27;23.90;44.60
1329;DHT22;658;48.820;9.354;2023-04-30T21:15:34;23.90;44.60
1329;DHT22;658;48.820;9.354;2023-04-30T21:19:34;23.90;44.60
1329;DHT22;658;48.820;9.354;2023-04-30T21:23:37;23.90;44.70
1329;DHT22;658;48.820;9.354;2023-04-30T21:27:40;23.90;44.60
1329;DHT22;658;48.820;9.354;2023-04-30T21:31:41;23.90;44.70
1329;DHT22;658;48.820;9.354;2023-04-30T21:35:41;23.90;44.70
1329;DHT22;658;48.820;9.354;2023-04-30T21:39:42;23.90;44.80
1329;DHT22;658;48.820;9.354;2023-04-30T21:43:45;23.90;44.80
1329;DHT22;658;48.820;9.354;2023-04-30T21:47:46;23.90;44.90
1329;DHT22;658;48.820;9.354;2023-04-30T21:51:49;23.90;44.80
1329;DHT22;658;48.820;9.354;2023-04-30T21:55:52;23.90;44.90
1329;DHT22;658;48.820;9.354;2023-04-30T21:59:57;23.90;44.80
1329;DHT22;658;48.820;9.354;2023-04-30T22:03:58;23.90;44.80
1329;DHT22;658;48.820;9.354;2023-04-30T22:07:59;23.90;44.80
1329;DHT22;658;48.820;9.354;2023-04-30T22:12:00;23.80;44.70
1329;DHT22;658;48.820;9.354;2023-04-30T22:16:06;23.80;44.80
1329;DHT22;658;48.820;9.354;2023-04-30T22:20:08;23.80;44.80
1329;DHT22;658;48.820;9.354;2023-04-30T22:24:09;23.80;44.90
1329;DHT22;658;48.820;9.354;2023-04-30T22:28:12;23.70;44.90
1329;DHT22;658;48.820;9.354;2023-04-30T22:32:20;23.60;44.80
1329;DHT22;658;48.820;9.354;2023-04-30T22:36:22;23.60;44.90
1329;DHT22;658;48.820;9.354;2023-04-30T22:40:22;23.50;44.80
1329;DHT22;658;48.820;9.354;2023-04-30T22:44:24;23.50;44.90
1329;DHT22;658;48.820;9.354;2023-04-30T22:48:25;23.50;45.50
1329;DHT22;658;48.820;9.354;2023-04-30T22:52:29;23.50;45.00
1329;DHT22;658;48.820;9.354;2023-04-30T22:56:31;23.40;44.90
1329;DHT22;658;48.820;9.354;2023-04-30T23:00:34;23.40;45.00
1329;DHT22;658;48.820;9.354;2023-04-30T23:04:35;23.40;45.00
1329;DHT22;658;48.820;9.354;2023-04-30T23:08:36;23.30;45.00
1329;DHT22;658;48.820;9.354;2023-04-30T23:12:38;23.30;45.00
1329;DHT22;658;48.820;9.354;2023-04-30T23:16:39;23.30;45.10
1329;DHT22;658;48.820;9.354;2023-04-30T23:20:44;23.20;45.00
1329;DHT22;658;48.820;9.354;2023-04-30T23:24:45;23.20;45.10
1329;DHT22;658;48.820;9.354;2023-04-30T23:28:45;23.20;45.20
1329;DHT22;658;48.820;9.354;2023-04-30T23:32:48;23.20;45.20
1329;DHT22;658;48.820;9.354;2023-04-30T23:36:49;23.10;45.20
1329;DHT22;658;48.820;9.354;2023-04-30T23:40:51;23.10;45.20
1329;DHT22;658;48.820;9.354;2023-04-30T23:44:55;23.10;45.30
1329;DHT22;658;48.820;9.354;2023-04-30T23:48:56;23.00;45.20
1329;DHT22;658;48.820;9.354;2023-04-30T23:52:59;23.00;45.20
1329;DHT22;658;48.820;9.354;2023-04-30T23:56:59;23.00;45.20
